Time;durP1;ratioP1;P1;durP2;ratioP2;P2;SDS_P1;SDS_P2;PMS_P1;PMS_P2;Temp;Humidity;BMP_temperature;BMP_pressure;BME280_temperature;BME280_humidity;BME280_pressure;Samples;Min_cycle;Max_cycle;Signal;HPM_P1;HPM_P2
2022/10/19 00:02:23;;;;;;;11.00;2.33;;;11.20;99.90;;;;;;4948444;28;20997;-49
2022/10/19 00:04:50;;;;;;;7.57;2.30;;;11.20;99.90;;;;;;4945941;28;20494;-49
2022/10/19 00:07:17;;;;;;;5.47;1.90;;;11.20;99.90;;;;;;4949945;28;20626;-51
2022/10/19 00:09:43;;;;;;;8.50;2.30;;;11.30;99.90;;;;;;4951188;28;20549;-51
2022/10/19 00:12:12;;;;;;;16.40;2.03;;;11.20;99.90;;;;;;4944438;28;20983;-51
2022/10/19 00:14:39;;;;;;;8.60;2.70;;;11.30;99.90;;;;;;4950315;28;20497;-51
2022/10/19 00:17:05;;;;;;;4.60;1.63;;;11.30;99.90;;;;;;4946891;28;20514;-51
2022/10/19 00:19:32;;;;;;;9.60;2.50;;;11.20;99.90;;;;;;4947170;28;20520;-51
2022/10/19 00:21:59;;;;;;;8.03;2.80;;;11.20;99.90;;;;;;4947841;28;20466;-51
2022/10/19 00:24:26;;;;;;;9.47;2.43;;;11.20;99.90;;;;;;4960087;28;20529;-50
2022/10/19 00:26:53;;;;;;;4.97;2.10;;;11.20;99.90;;;;;;4946431;28;20545;-48
2022/10/19 00:29:22;;;;;;;5.27;2.17;;;11.20;99.90;;;;;;4951265;28;20493;-49
2022/10/19 00:31:49;;;;;;;5.63;2.03;;;11.30;99.90;;;;;;4943904;28;20459;-48
2022/10/19 00:34:15;;;;;;;4.23;1.80;;;11.30;99.90;;;;;;4945056;28;20488;-48
2022/10/19 00:36:42;;;;;;;8.37;2.30;;;11.20;99.90;;;;;;4979627;22;21681;-54
2022/10/19 00:39:12;;;;;;;8.33;2.07;;;11.30;99.90;;;;;;5013187;28;20463;-53
2022/10/19 00:41:39;;;;;;;15.03;2.93;;;11.20;99.90;;;;;;5009921;28;20521;-54
2022/10/19 00:44:27;;;;;;;9.43;1.83;;;11.20;99.90;;;;;;5011356;28;20460;-54
2022/10/19 00:46:59;;;;;;;7.30;1.90;;;11.20;99.90;;;;;;5008669;28;20480;-54
2022/10/19 00:49:29;;;;;;;5.90;1.60;;;11.20;99.90;;;;;;5011541;28;20557;-54
2022/10/19 00:52:02;;;;;;;5.20;1.53;;;11.30;99.90;;;;;;5005617;28;20527;-54
2022/10/19 00:54:29;;;;;;;7.60;1.60;;;11.30;21.20;;;;;;5013007;28;20475;-54
2022/10/19 00:56:57;;;;;;;9.20;1.90;;;11.30;28.30;;;;;;5008819;28;20484;-54
2022/10/19 00:59:26;;;;;;;4.90;1.87;;;11.30;29.40;;;;;;5012884;28;20464;-54
2022/10/19 01:01:54;;;;;;;4.73;1.90;;;11.30;24.40;;;;;;5008088;28;20467;-54
2022/10/19 01:04:23;;;;;;;3.17;1.20;;;11.30;28.70;;;;;;5005047;28;20538;-54
2022/10/19 01:06:49;;;;;;;4.10;1.70;;;11.40;29.00;;;;;;5006242;28;20479;-54
2022/10/19 01:09:16;;;;;;;4.63;1.63;;;11.40;26.10;;;;;;5009940;28;20471;-55
2022/10/19 01:11:50;;;;;;;5.00;1.50;;;11.40;24.40;;;;;;5007989;28;20497;-55
2022/10/19 01:14:33;;;;;;;7.73;1.70;;;11.30;44.50;;;;;;5007705;28;20504;-55
2022/10/19 01:17:09;;;;;;;6.70;1.63;;;11.40;30.70;;;;;;5004868;28;20488;-54
2022/10/19 01:20:07;;;;;;;11.73;1.80;;;11.30;32.00;;;;;;5007528;28;20466;-54
2022/10/19 01:22:45;;;;;;;5.40;1.27;;;11.30;37.90;;;;;;5006995;28;21027;-54
2022/10/19 01:25:22;;;;;;;6.03;1.30;;;11.30;45.80;;;;;;5009664;28;20815;-54
2022/10/19 01:28:10;;;;;;;5.50;1.60;;;11.40;32.70;;;;;;5009496;28;20483;-55
2022/10/19 01:30:47;;;;;;;4.93;1.47;;;11.40;32.90;;;;;;5008379;28;20467;-55
2022/10/19 01:33:27;;;;;;;3.00;1.43;;;11.40;24.20;;;;;;5007694;28;20478;-55
2022/10/19 01:36:01;;;;;;;8.30;1.87;;;11.40;42.00;;;;;;5009117;28;21163;-54
2022/10/19 01:38:36;;;;;;;2.63;1.47;;;11.40;36.40;;;;;;5011011;28;20492;-54
2022/10/19 01:41:14;;;;;;;4.70;1.23;;;11.30;39.50;;;;;;5006690;28;20483;-54
2022/10/19 01:43:46;;;;;;;10.93;3.83;;;11.40;44.60;;;;;;5010137;28;20953;-53
2022/10/19 01:46:19;;;;;;;5.73;1.60;;;11.30;53.30;;;;;;5007401;28;20448;-54
2022/10/19 01:48:54;;;;;;;2.20;1.33;;;11.40;59.90;;;;;;5007947;28;20471;-54
2022/10/19 01:51:26;;;;;;;6.97;1.67;;;11.40;60.30;;;;;;5008371;28;20495;-54
2022/10/19 01:53:55;;;;;;;9.03;2.00;;;11.40;57.90;;;;;;5011697;28;20467;-55
2022/10/19 01:56:26;;;;;;;4.83;1.50;;;11.40;56.10;;;;;;5009830;28;20961;-54
2022/10/19 01:58:55;;;;;;;5.13;1.40;;;11.40;54.30;;;;;;5006286;28;20524;-53
2022/10/19 02:01:27;;;;;;;8.93;2.10;;;11.40;49.80;;;;;;5006610;28;20487;-55
2022/10/19 02:03:54;;;;;;;5.37;1.73;;;11.40;50.10;;;;;;5005314;28;20509;-55
2022/10/19 02:06:21;;;;;;;4.30;1.37;;;11.40;49.90;;;;;;5012731;28;20451;-54
2022/10/19 02:08:50;;;;;;;5.80;1.90;;;11.40;57.00;;;;;;5010632;28;20517;-53
2022/10/19 02:11:18;;;;;;;3.80;1.10;;;11.40;66.90;;;;;;5012308;28;20456;-54
2022/10/19 02:13:48;;;;;;;3.90;1.10;;;11.40;65.90;;;;;;5007356;28;20555;-54
2022/10/19 02:16:19;;;;;;;1.90;0.97;;;11.30;60.10;;;;;;5009726;28;20542;-56
2022/10/19 02:18:50;;;;;;;5.13;1.47;;;11.30;61.30;;;;;;5011177;28;20962;-54
2022/10/19 02:21:17;;;;;;;4.60;1.03;;;11.30;52.50;;;;;;5010020;28;20463;-54
2022/10/19 02:23:44;;;;;;;5.63;1.20;;;11.30;53.30;;;;;;5005025;28;20511;-53
2022/10/19 02:26:11;;;;;;;5.87;1.50;;;11.40;54.80;;;;;;5011498;28;20531;-55
2022/10/19 02:28:38;;;;;;;3.73;1.30;;;11.30;69.10;;;;;;5008476;28;20503;-54
2022/10/19 02:31:05;;;;;;;4.43;1.40;;;11.30;59.50;;;;;;5009714;28;20455;-53
2022/10/19 02:33:32;;;;;;;5.60;1.20;;;11.30;60.90;;;;;;5008042;28;20460;-54
2022/10/19 02:36:01;;;;;;;2.60;1.33;;;11.30;60.60;;;;;;5008192;28;20770;-53
2022/10/19 02:38:27;;;;;;;4.83;1.10;;;11.20;67.60;;;;;;5011144;28;20495;-54
2022/10/19 02:41:02;;;;;;;2.17;1.03;;;11.20;70.60;;;;;;5011639;28;20459;-55
2022/10/19 02:43:31;;;;;;;4.80;1.40;;;11.20;69.60;;;;;;5006785;28;20483;-55
2022/10/19 02:46:04;;;;;;;4.00;1.13;;;11.20;72.40;;;;;;5004836;28;20550;-55
2022/10/19 02:48:33;;;;;;;4.83;1.20;;;11.20;67.70;;;;;;5009319;28;20479;-55
2022/10/19 02:51:00;;;;;;;1.40;0.90;;;11.20;68.80;;;;;;5010036;28;20513;-55
2022/10/19 02:53:28;;;;;;;5.53;1.07;;;11.30;73.10;;;;;;5004387;28;21228;-54
2022/10/19 02:55:54;;;;;;;7.47;1.73;;;11.20;63.20;;;;;;5008565;28;20534;-53
2022/10/19 02:58:21;;;;;;;6.10;1.50;;;11.20;67.20;;;;;;5007257;28;20920;-55
2022/10/19 03:00:47;;;;;;;5.27;1.90;;;11.30;50.40;;;;;;5003520;28;20557;-55
2022/10/19 03:03:14;;;;;;;9.70;1.83;;;11.30;46.70;;;;;;5007219;28;20495;-53
2022/10/19 03:05:41;;;;;;;18.13;1.70;;;11.20;51.40;;;;;;5009480;28;20460;-53
2022/10/19 03:08:09;;;;;;;9.63;1.40;;;11.20;49.20;;;;;;5008659;28;20865;-53
2022/10/19 03:10:35;;;;;;;2.60;1.13;;;11.20;52.60;;;;;;5009057;28;20522;-55
2022/10/19 03:13:02;;;;;;;4.00;1.10;;;11.20;48.70;;;;;;5004431;28;20468;-54
2022/10/19 03:15:28;;;;;;;8.33;1.43;;;11.20;52.50;;;;;;5008962;28;20923;-55
2022/10/19 03:17:56;;;;;;;8.50;1.27;;;11.10;49.30;;;;;;5011128;28;20484;-54
2022/10/19 03:20:22;;;;;;;4.47;1.20;;;11.10;51.40;;;;;;5009169;28;20460;-54
2022/10/19 03:22:49;;;;;;;4.07;1.80;;;11.10;44.90;;;;;;5009112;28;20500;-54
2022/10/19 03:25:17;;;;;;;4.17;1.10;;;11.10;48.10;;;;;;5008325;28;20973;-55
2022/10/19 03:27:44;;;;;;;2.50;1.03;;;11.10;53.00;;;;;;5007136;28;20491;-54
2022/10/19 03:30:11;;;;;;;2.47;1.33;;;11.10;56.10;;;;;;5008888;28;20455;-54
2022/10/19 03:32:37;;;;;;;2.70;1.27;;;11.10;52.40;;;;;;5006694;28;20460;-54
2022/10/19 03:35:05;;;;;;;6.70;1.40;;;11.10;42.90;;;;;;5007210;28;20989;-54
2022/10/19 03:37:31;;;;;;;1.97;1.07;;;11.10;48.70;;;;;;5007679;28;20549;-55
2022/10/19 03:39:58;;;;;;;2.93;1.13;;;11.10;48.90;;;;;;5010468;28;20467;-54
2022/10/19 03:42:26;;;;;;;2.83;0.97;;;11.10;55.10;;;;;;5008333;28;20463;-54
2022/10/19 03:44:53;;;;;;;3.63;1.00;;;11.10;49.00;;;;;;5003148;28;20478;-53
2022/10/19 03:47:19;;;;;;;2.33;1.10;;;11.10;51.00;;;;;;5006307;28;22120;-54
2022/10/19 03:49:46;;;;;;;1.63;0.80;;;11.10;56.80;;;;;;5010596;28;20464;-54
2022/10/19 03:52:13;;;;;;;8.33;1.00;;;11.10;51.50;;;;;;5008459;28;20550;-53
2022/10/19 03:54:39;;;;;;;3.17;1.53;;;11.10;55.00;;;;;;5006329;28;20498;-54
2022/10/19 03:57:06;;;;;;;2.13;1.00;;;11.00;54.70;;;;;;5007963;28;20519;-54
2022/10/19 03:59:34;;;;;;;3.50;1.73;;;11.00;49.80;;;;;;5005315;28;20881;-54
2022/10/19 04:02:01;;;;;;;3.13;0.93;;;11.00;52.90;;;;;;5004840;28;20467;-53
2022/10/19 04:04:28;;;;;;;1.27;0.80;;;11.10;50.20;;;;;;5009194;28;20475;-54
2022/10/19 04:06:55;;;;;;;5.23;1.53;;;11.00;48.90;;;;;;5008583;28;20522;-54
2022/10/19 04:09:22;;;;;;;5.60;1.10;;;11.10;48.10;;;;;;5007064;28;21039;-53
2022/10/19 04:11:49;;;;;;;0.80;0.80;;;11.00;51.10;;;;;;5002928;28;20460;-55
2022/10/19 04:14:18;;;;;;;4.63;1.10;;;11.10;52.50;;;;;;5010377;28;20471;-55
2022/10/19 04:16:46;;;;;;;2.77;0.70;;;11.00;50.10;;;;;;5010820;28;20515;-55
2022/10/19 04:19:14;;;;;;;2.30;1.07;;;11.00;49.60;;;;;;5004616;28;20992;-55
2022/10/19 04:21:42;;;;;;;4.53;1.23;;;11.00;67.30;;;;;;5009545;28;20460;-54
2022/10/19 04:24:11;;;;;;;2.20;0.87;;;11.00;74.70;;;;;;5011822;28;20554;-55
2022/10/19 04:26:40;;;;;;;3.90;1.17;;;11.00;66.80;;;;;;5013765;28;20480;-53
2022/10/19 04:29:07;;;;;;;0.97;0.70;;;11.00;68.80;;;;;;5010637;28;20519;-53
2022/10/19 04:31:34;;;;;;;5.67;1.57;;;11.00;60.80;;;;;;5009726;28;20468;-54
2022/10/19 04:34:02;;;;;;;2.90;1.77;;;11.00;56.10;;;;;;5007909;28;20495;-55
2022/10/19 04:36:28;;;;;;;3.40;0.93;;;11.00;53.80;;;;;;5004784;28;20483;-53
2022/10/19 04:38:55;;;;;;;2.20;1.13;;;11.00;54.80;;;;;;5009173;28;20460;-54
2022/10/19 04:41:22;;;;;;;6.97;1.23;;;11.00;53.90;;;;;;5011366;28;20489;-53
2022/10/19 04:43:53;;;;;;;2.20;1.00;;;11.00;52.80;;;;;;5009144;28;20486;-54
2022/10/19 04:46:20;;;;;;;5.03;1.13;;;11.00;54.30;;;;;;5011820;28;21101;-55
2022/10/19 04:48:48;;;;;;;0.90;0.80;;;11.00;55.20;;;;;;5007004;28;20534;-55
2022/10/19 04:51:17;;;;;;;2.13;0.93;;;11.00;47.00;;;;;;5003861;28;20542;-55
2022/10/19 04:53:44;;;;;;;3.50;1.03;;;11.00;50.50;;;;;;5003530;28;20465;-55
2022/10/19 04:56:14;;;;;;;2.30;1.20;;;11.00;58.80;;;;;;5003280;28;20514;-55
2022/10/19 04:58:41;;;;;;;2.30;0.90;;;10.90;53.90;;;;;;5006040;28;20985;-55
2022/10/19 05:01:09;;;;;;;1.20;1.07;;;10.90;39.70;;;;;;5009562;28;20565;-53
2022/10/19 05:03:36;;;;;;;2.30;1.23;;;10.80;35.80;;;;;;5002980;28;20633;-54
2022/10/19 05:06:03;;;;;;;5.80;1.17;;;10.80;30.80;;;;;;5007627;28;20549;-55
2022/10/19 05:08:31;;;;;;;2.47;0.90;;;10.70;31.00;;;;;;5009134;28;20491;-53
2022/10/19 05:11:01;;;;;;;13.13;2.17;;;10.70;28.70;;;;;;5013426;28;20460;-54
2022/10/19 05:13:28;;;;;;;2.47;1.10;;;10.70;25.50;;;;;;5009271;28;20492;-54
2022/10/19 05:15:56;;;;;;;9.30;1.10;;;10.70;81.50;;;;;;5003527;28;20545;-53
2022/10/19 05:18:23;;;;;;;3.87;1.23;;;10.70;99.90;;;;;;5009165;28;20498;-54
2022/10/19 05:20:49;;;;;;;5.57;1.63;;;10.60;99.90;;;;;;5007356;28;20459;-54
2022/10/19 05:23:16;;;;;;;6.93;0.97;;;10.60;99.90;;;;;;5008558;28;20945;-55
2022/10/19 05:25:44;;;;;;;6.30;4.10;;;10.60;99.90;;;;;;5003454;28;20460;-54
2022/10/19 05:28:10;;;;;;;9.00;3.20;;;10.70;99.90;;;;;;5008486;28;20507;-53
2022/10/19 05:30:37;;;;;;;8.50;4.90;;;10.70;99.90;;;;;;5009424;28;20460;-55
2022/10/19 05:33:04;;;;;;;8.63;2.10;;;10.70;99.90;;;;;;5002552;28;20957;-55
2022/10/19 05:35:31;;;;;;;5.13;1.23;;;10.60;99.90;;;;;;5010597;28;20511;-54
2022/10/19 05:37:57;;;;;;;4.57;1.80;;;10.70;99.90;;;;;;5009128;28;20491;-54
2022/10/19 05:40:24;;;;;;;4.87;1.23;;;10.70;99.90;;;;;;5013432;28;20460;-53
2022/10/19 05:42:52;;;;;;;3.90;1.00;;;10.70;99.90;;;;;;5005912;28;20950;-54
2022/10/19 05:45:18;;;;;;;14.93;1.37;;;10.70;99.90;;;;;;5016341;28;20464;-54
2022/10/19 05:47:45;;;;;;;3.20;1.27;;;10.70;99.90;;;;;;5009585;28;20483;-54
2022/10/19 05:50:11;;;;;;;6.10;1.20;;;10.70;99.90;;;;;;5009247;28;20463;-54
2022/10/19 05:52:38;;;;;;;2.60;1.00;;;10.70;99.90;;;;;;5008437;28;20827;-55
2022/10/19 05:55:05;;;;;;;1.43;1.03;;;10.70;99.90;;;;;;5005372;28;20460;-53
2022/10/19 05:57:32;;;;;;;4.73;1.07;;;10.70;99.90;;;;;;5007399;28;20515;-53
2022/10/19 06:00:00;;;;;;;4.47;1.40;;;10.80;77.80;;;;;;5008356;28;20487;-54
2022/10/19 06:02:27;;;;;;;2.97;1.10;;;10.70;20.10;;;;;;5010755;28;20459;-54
2022/10/19 06:04:53;;;;;;;3.10;1.20;;;10.80;87.40;;;;;;5011104;28;20460;-54
2022/10/19 06:07:20;;;;;;;5.97;1.70;;;10.80;99.90;;;;;;5007218;28;20483;-54
2022/10/19 06:09:46;;;;;;;6.03;1.00;;;10.80;99.90;;;;;;5005725;28;20974;-54
2022/10/19 06:12:13;;;;;;;1.93;1.20;;;10.80;99.90;;;;;;5008417;28;20957;-50
2022/10/19 06:14:41;;;;;;;12.20;1.10;;;10.80;99.90;;;;;;5011080;28;20518;-50
2022/10/19 06:17:09;;;;;;;3.53;1.10;;;10.80;99.90;;;;;;5011544;28;20487;-50
2022/10/19 06:19:36;;;;;;;3.30;1.20;;;10.80;99.90;;;;;;5006975;28;20952;-50
2022/10/19 06:22:03;;;;;;;5.23;0.80;;;10.80;99.90;;;;;;5010445;28;20495;-50
2022/10/19 06:24:30;;;;;;;3.63;1.27;;;10.90;99.90;;;;;;5004990;28;20463;-50
2022/10/19 06:26:56;;;;;;;1.80;1.13;;;10.90;99.90;;;;;;5012047;28;20475;-50
2022/10/19 06:29:23;;;;;;;4.60;1.20;;;10.80;99.90;;;;;;4999945;28;20460;-50
2022/10/19 06:31:50;;;;;;;3.90;1.27;;;10.90;99.90;;;;;;5008007;28;20522;-50
2022/10/19 06:34:19;;;;;;;4.50;1.20;;;10.90;99.90;;;;;;5009202;28;20456;-50
2022/10/19 06:36:45;;;;;;;4.77;1.10;;;10.90;99.90;;;;;;5030137;22;20497;-51
2022/10/19 06:39:12;;;;;;;6.40;1.30;;;10.90;99.90;;;;;;4983835;28;20570;-50
2022/10/19 06:41:38;;;;;;;7.47;1.50;;;11.00;99.90;;;;;;4990731;28;20488;-51
2022/10/19 06:44:05;;;;;;;7.40;1.40;;;11.00;99.90;;;;;;4983966;28;20501;-50
2022/10/19 06:46:32;;;;;;;5.90;1.10;;;11.00;99.90;;;;;;4988012;28;20453;-51
2022/10/19 06:49:00;;;;;;;3.70;1.30;;;11.00;99.90;;;;;;4983521;28;20488;-51
2022/10/19 06:51:32;;;;;;;5.87;1.30;;;11.00;99.90;;;;;;4979751;28;20461;-50
2022/10/19 06:53:59;;;;;;;4.20;1.20;;;11.00;96.80;;;;;;4985982;28;20460;-51
2022/10/19 06:56:26;;;;;;;5.20;1.33;;;11.10;99.90;;;;;;4985234;28;20484;-51
2022/10/19 06:58:54;;;;;;;6.63;1.13;;;11.10;99.90;;;;;;4990023;28;20494;-51
2022/10/19 07:01:21;;;;;;;4.30;1.57;;;11.10;99.90;;;;;;4980598;28;20839;-51
2022/10/19 07:03:47;;;;;;;5.20;1.73;;;11.10;99.90;;;;;;4986128;28;20468;-51
2022/10/19 07:06:14;;;;;;;4.97;1.67;;;11.20;99.90;;;;;;4989176;28;20829;-50
2022/10/19 07:08:43;;;;;;;4.70;1.13;;;11.20;23.60;;;;;;4981941;28;20539;-50
2022/10/19 07:11:18;;;;;;;6.90;1.07;;;11.30;25.30;;;;;;4994880;28;20507;-50
2022/10/19 07:13:44;;;;;;;5.63;1.70;;;11.20;20.40;;;;;;4985309;28;20880;-50
2022/10/19 07:16:14;;;;;;;3.63;1.53;;;11.20;23.80;;;;;;4983141;28;20890;-51
2022/10/19 07:18:42;;;;;;;4.33;1.40;;;11.20;24.90;;;;;;4989549;28;20857;-53
2022/10/19 07:21:10;;;;;;;5.40;1.40;;;11.20;20.60;;;;;;4990430;28;20531;-52
2022/10/19 07:23:39;;;;;;;4.23;1.23;;;11.30;22.20;;;;;;4992742;28;20449;-52
2022/10/19 07:26:10;;;;;;;5.37;1.50;;;11.30;29.00;;;;;;4985059;28;21607;-52
2022/10/19 07:28:38;;;;;;;4.10;1.10;;;11.30;24.80;;;;;;4982046;28;20480;-49
2022/10/19 07:31:06;;;;;;;8.67;1.93;;;11.40;27.10;;;;;;4989827;28;20461;-48
2022/10/19 07:33:33;;;;;;;6.00;1.70;;;11.50;20.20;;;;;;4987774;28;20803;-50
2022/10/19 07:36:01;;;;;;;3.77;1.27;;;11.50;28.50;;;;;;4989857;28;20471;-50
2022/10/19 07:38:28;;;;;;;4.97;1.23;;;11.50;38.80;;;;;;4990841;28;20496;-49
2022/10/19 07:41:01;;;;;;;4.37;1.00;;;11.40;36.60;;;;;;4981413;28;20460;-50
2022/10/19 07:43:29;;;;;;;6.73;1.50;;;11.30;34.20;;;;;;4987645;28;20511;-49
2022/10/19 07:45:59;;;;;;;6.43;1.00;;;11.30;23.10;;;;;;4989178;28;20475;-48
2022/10/19 07:48:26;;;;;;;6.00;1.30;;;11.40;21.80;;;;;;4990388;28;20508;-49
2022/10/19 07:50:53;;;;;;;8.87;1.07;;;11.40;83.90;;;;;;4986612;28;20939;-49
2022/10/19 07:53:20;;;;;;;9.83;1.97;;;11.40;32.10;;;;;;4988963;28;20504;-52
2022/10/19 07:55:46;;;;;;;1.50;1.23;;;11.40;24.50;;;;;;4990702;28;20542;-50
2022/10/19 07:58:13;;;;;;;5.07;1.47;;;11.50;30.00;;;;;;4985176;28;21052;-52
2022/10/19 08:00:41;;;;;;;9.43;1.47;;;11.60;30.00;;;;;;4985147;28;20460;-49
2022/10/19 08:03:07;;;;;;;2.90;1.40;;;11.60;24.00;;;;;;4993038;28;20824;-50
2022/10/19 08:05:34;;;;;;;3.63;1.00;;;11.70;29.50;;;;;;4988957;28;20526;-52
2022/10/19 08:08:01;;;;;;;6.40;1.60;;;11.60;61.40;;;;;;4989182;28;20512;-51
2022/10/19 08:10:27;;;;;;;7.30;1.60;;;11.70;62.10;;;;;;4989371;28;20468;-50
2022/10/19 08:12:54;;;;;;;3.30;1.00;;;11.70;64.80;;;;;;4989525;28;21037;-50
2022/10/19 08:15:20;;;;;;;15.87;1.47;;;11.70;55.80;;;;;;4985308;28;20514;-50
2022/10/19 08:17:48;;;;;;;4.50;1.10;;;11.80;48.00;;;;;;4990270;28;20488;-50
2022/10/19 08:20:15;;;;;;;5.90;1.30;;;11.80;55.50;;;;;;4987299;28;20469;-50
2022/10/19 08:22:44;;;;;;;3.97;1.20;;;11.90;51.80;;;;;;4989799;28;20527;-50
2022/10/19 08:25:10;;;;;;;6.30;1.43;;;11.90;61.70;;;;;;4986296;28;20552;-50
2022/10/19 08:27:37;;;;;;;3.80;1.23;;;11.90;68.50;;;;;;4988229;28;20507;-51
2022/10/19 08:30:04;;;;;;;4.90;1.30;;;12.00;72.70;;;;;;4987348;28;20500;-50
2022/10/19 08:32:30;;;;;;;3.23;1.30;;;12.10;68.50;;;;;;4986409;28;20527;-50
2022/10/19 08:34:58;;;;;;;4.40;1.30;;;12.20;80.00;;;;;;4982029;28;20507;-49
2022/10/19 08:37:25;;;;;;;3.83;1.20;;;12.20;83.10;;;;;;4985200;28;20858;-49
2022/10/19 08:39:51;;;;;;;5.90;1.23;;;12.30;82.70;;;;;;4989885;28;20464;-50
2022/10/19 08:42:23;;;;;;;5.80;1.60;;;12.30;87.20;;;;;;4987468;28;20885;-50
2022/10/19 08:45:10;;;;;;;5.33;1.40;;;12.30;82.00;;;;;;4987107;28;20500;-51
2022/10/19 08:47:51;;;;;;;7.13;1.10;;;12.20;99.90;;;;;;4990374;28;20887;-50
2022/10/19 08:50:22;;;;;;;3.27;1.20;;;12.30;99.90;;;;;;4989935;28;20495;-52
2022/10/19 08:52:53;;;;;;;6.20;0.93;;;12.30;99.90;;;;;;4983588;28;20547;-52
2022/10/19 08:55:28;;;;;;;2.70;0.97;;;12.50;99.90;;;;;;4985671;28;20836;-52
2022/10/19 08:58:02;;;;;;;1.93;1.00;;;12.50;99.90;;;;;;4991446;28;20550;-50
2022/10/19 09:00:38;;;;;;;5.83;1.70;;;12.70;99.90;;;;;;4988831;28;20496;-50
2022/10/19 09:03:16;;;;;;;5.03;1.40;;;12.80;99.90;;;;;;4987298;28;20469;-50
2022/10/19 09:05:48;;;;;;;5.17;1.60;;;12.80;99.90;;;;;;4983494;28;20495;-50
2022/10/19 09:08:16;;;;;;;4.83;1.20;;;13.00;99.90;;;;;;4999424;28;20503;-50
2022/10/19 09:10:47;;;;;;;7.10;1.30;;;12.80;99.90;;;;;;4988550;28;20485;-50
2022/10/19 09:13:19;;;;;;;3.30;1.10;;;12.80;99.90;;;;;;4993221;28;20473;-51
2022/10/19 09:15:48;;;;;;;2.93;1.20;;;12.80;99.90;;;;;;4989664;28;20519;-51
2022/10/19 09:18:20;;;;;;;4.07;1.20;;;12.70;99.90;;;;;;4989573;28;20531;-50
2022/10/19 09:20:50;;;;;;;1.83;1.00;;;12.70;99.90;;;;;;4993528;28;20468;-51
2022/10/19 09:23:22;;;;;;;8.63;1.03;;;12.70;99.90;;;;;;4993504;28;21185;-51
2022/10/19 09:25:50;;;;;;;6.93;1.20;;;12.60;99.90;;;;;;4988495;28;20946;-52
2022/10/19 09:28:44;;;;;;;23.20;1.77;;;12.70;99.90;;;;;;4990819;28;20472;-52
2022/10/19 09:31:15;;;;;;;3.73;1.03;;;12.60;99.90;;;;;;4987009;28;20550;-52
2022/10/19 09:33:43;;;;;;;2.63;1.23;;;12.70;99.90;;;;;;4990570;28;20937;-52
2022/10/19 09:36:11;;;;;;;5.03;1.37;;;12.70;99.90;;;;;;4988514;28;20515;-52
2022/10/19 09:38:38;;;;;;;6.93;1.73;;;12.70;99.90;;;;;;4990381;28;20488;-52
2022/10/19 09:41:17;;;;;;;4.93;1.47;;;12.80;99.90;;;;;;4993322;28;20832;-52
2022/10/19 09:43:49;;;;;;;7.47;1.30;;;12.90;99.90;;;;;;4992269;28;20492;-52
2022/10/19 09:46:27;;;;;;;2.70;1.20;;;13.00;99.90;;;;;;4993085;28;20468;-48
2022/10/19 09:48:53;;;;;;;10.23;1.60;;;13.10;99.90;;;;;;4994421;28;20465;-52
2022/10/19 09:51:22;;;;;;;5.33;1.20;;;13.20;99.90;;;;;;4990135;28;20897;-52
2022/10/19 09:53:52;;;;;;;3.40;1.57;;;13.20;99.90;;;;;;4987544;28;20492;-51
2022/10/19 09:56:21;;;;;;;1.10;1.00;;;13.20;99.90;;;;;;4992735;28;20461;-52
2022/10/19 09:58:49;;;;;;;4.40;1.33;;;13.30;99.90;;;;;;4990264;28;20527;-52
2022/10/19 10:01:30;;;;;;;4.47;1.17;;;13.60;99.90;;;;;;4985708;28;20516;-48
2022/10/19 10:04:05;;;;;;;2.30;1.20;;;13.70;89.00;;;;;;4992435;28;20460;-49
2022/10/19 10:06:34;;;;;;;2.40;0.70;;;13.70;99.90;;;;;;4991058;28;20460;-48
2022/10/19 10:09:02;;;;;;;3.20;1.10;;;13.80;77.10;;;;;;4989719;28;20476;-52
2022/10/19 10:11:32;;;;;;;2.97;0.87;;;13.80;30.50;;;;;;4989472;28;20572;-52
2022/10/19 10:14:04;;;;;;;2.93;0.73;;;14.00;32.50;;;;;;4988183;28;20587;-49
2022/10/19 10:16:35;;;;;;;3.90;1.10;;;14.10;35.50;;;;;;4990657;28;20539;-49
2022/10/19 10:19:06;;;;;;;2.40;0.90;;;14.00;27.50;;;;;;4986383;28;20496;-49
2022/10/19 10:21:45;;;;;;;5.53;1.13;;;13.90;44.90;;;;;;4992129;28;20460;-50
2022/10/19 10:24:17;;;;;;;2.20;0.80;;;13.70;40.20;;;;;;4990368;28;20846;-49
2022/10/19 10:26:47;;;;;;;1.73;1.00;;;13.50;46.90;;;;;;4991550;28;20550;-49
2022/10/19 10:29:19;;;;;;;6.83;1.33;;;13.50;34.30;;;;;;4993352;28;20496;-50
2022/10/19 10:31:48;;;;;;;1.70;0.97;;;13.40;44.50;;;;;;4991208;28;20472;-48
2022/10/19 10:34:19;;;;;;;3.17;0.73;;;13.40;32.70;;;;;;4989540;28;20551;-49
2022/10/19 10:36:51;;;;;;;8.07;1.33;;;13.40;27.00;;;;;;4991257;28;20491;-50
2022/10/19 10:39:19;;;;;;;3.60;1.27;;;13.50;33.50;;;;;;4990700;28;20465;-49
2022/10/19 10:41:47;;;;;;;2.63;1.10;;;13.50;41.00;;;;;;4990388;28;20471;-50
2022/10/19 10:44:19;;;;;;;1.80;0.80;;;13.60;64.80;;;;;;4990507;28;20543;-50
2022/10/19 10:46:52;;;;;;;2.87;0.80;;;13.60;79.50;;;;;;4995326;28;20492;-49
2022/10/19 10:49:22;;;;;;;1.70;0.87;;;13.60;86.60;;;;;;4992343;28;20461;-49
2022/10/19 10:51:55;;;;;;;4.57;0.73;;;13.60;79.10;;;;;;4988373;28;20472;-49
2022/10/19 10:54:23;;;;;;;2.87;0.87;;;13.60;71.10;;;;;;4991467;28;20481;-48
2022/10/19 10:57:03;;;;;;;0.83;0.70;;;13.50;68.10;;;;;;4989071;28;20461;-49
2022/10/19 10:59:34;;;;;;;1.43;0.80;;;13.40;73.70;;;;;;4989460;28;20484;-49
2022/10/19 11:02:03;;;;;;;2.50;0.80;;;13.40;80.70;;;;;;4990482;28;20488;-49
2022/10/19 11:04:35;;;;;;;1.20;0.50;;;13.50;74.00;;;;;;4990077;28;20464;-48
2022/10/19 11:07:14;;;;;;;4.87;1.00;;;13.60;70.60;;;;;;4987334;28;20539;-49
2022/10/19 11:09:44;;;;;;;2.93;0.90;;;13.50;52.50;;;;;;4991820;28;20949;-49
2022/10/19 11:12:14;;;;;;;2.87;0.70;;;13.40;41.10;;;;;;4988485;28;20464;-49
2022/10/19 11:14:48;;;;;;;3.00;1.40;;;13.20;32.90;;;;;;4992870;28;20456;-49
2022/10/19 11:17:19;;;;;;;3.00;1.20;;;13.20;30.00;;;;;;4990729;28;20819;-48
2022/10/19 11:19:45;;;;;;;5.20;1.03;;;13.20;41.00;;;;;;4988369;28;21073;-52
2022/10/19 11:22:21;;;;;;;6.53;1.20;;;13.30;31.30;;;;;;4991180;28;20469;-52
2022/10/19 11:25:16;;;;;;;8.10;0.80;;;13.20;34.40;;;;;;4991848;28;20468;-52
2022/10/19 11:27:51;;;;;;;4.70;1.17;;;13.30;33.90;;;;;;4985868;28;20516;-52
2022/10/19 11:30:19;;;;;;;4.27;1.30;;;13.50;55.20;;;;;;4988140;28;20601;-52
2022/10/19 11:32:55;;;;;;;2.40;0.80;;;13.50;54.50;;;;;;5002470;28;20441;-53
2022/10/19 11:35:41;;;;;;;2.07;1.00;;;13.60;51.50;;;;;;4985542;28;20496;-50
2022/10/19 11:38:26;;;;;;;3.30;1.00;;;13.50;51.00;;;;;;4992130;28;20570;-50
2022/10/19 11:40:59;;;;;;;7.23;1.73;;;13.50;40.90;;;;;;4990172;28;20492;-51
2022/10/19 11:43:35;;;;;;;2.10;0.90;;;13.60;61.90;;;;;;4987983;28;20469;-49
2022/10/19 11:46:12;;;;;;;1.93;0.73;;;13.70;48.00;;;;;;4981857;28;20464;-49
2022/10/19 11:49:04;;;;;;;4.00;0.70;;;13.60;63.20;;;;;;4985491;28;20558;-49
2022/10/19 11:51:38;;;;;;;1.80;1.07;;;13.80;82.20;;;;;;4988807;28;20826;-49
2022/10/19 11:54:22;;;;;;;1.07;0.70;;;13.90;69.80;;;;;;4990310;28;20496;-49
2022/10/19 11:56:51;;;;;;;2.83;1.40;;;13.90;99.90;;;;;;4987343;28;20550;-52
2022/10/19 11:59:28;;;;;;;2.60;1.00;;;14.00;99.90;;;;;;4988847;28;20492;-53
2022/10/19 12:02:04;;;;;;;2.03;1.00;;;13.90;98.30;;;;;;4986662;28;20491;-52
2022/10/19 12:04:50;;;;;;;1.57;0.70;;;13.90;73.40;;;;;;4990129;28;20526;-49
2022/10/19 12:07:36;;;;;;;2.77;0.97;;;13.80;99.90;;;;;;4982255;28;20960;-49
2022/10/19 12:10:15;;;;;;;4.20;0.97;;;13.80;87.50;;;;;;4983398;28;20540;-49
2022/10/19 12:12:45;;;;;;;5.90;1.20;;;13.80;84.10;;;;;;4985374;28;20514;-49
2022/10/19 12:15:25;;;;;;;4.23;0.83;;;13.90;66.10;;;;;;4989777;28;20468;-49
2022/10/19 12:17:54;;;;;;;0.97;0.70;;;14.30;76.20;;;;;;4987548;28;20492;-50
2022/10/19 12:20:28;;;;;;;3.30;1.17;;;14.30;77.00;;;;;;4984395;28;20497;-49
2022/10/19 12:22:57;;;;;;;2.60;1.30;;;14.20;82.40;;;;;;4985877;28;20483;-49
2022/10/19 12:25:26;;;;;;;1.57;1.00;;;14.30;76.10;;;;;;4989174;28;20492;-48
2022/10/19 12:27:54;;;;;;;2.33;1.00;;;14.40;86.10;;;;;;4989183;28;20559;-49
2022/10/19 12:30:22;;;;;;;1.07;0.60;;;14.30;76.00;;;;;;4979670;28;20524;-48
2022/10/19 12:32:57;;;;;;;2.03;0.80;;;14.20;94.20;;;;;;4986728;28;20464;-50
2022/10/19 12:35:35;;;;;;;8.00;1.23;;;14.10;69.70;;;;;;4984456;28;20464;-49
2022/10/19 12:38:08;;;;;;;3.37;1.03;;;14.10;58.30;;;;;;4984785;28;72571;-49
2022/10/19 12:40:42;;;;;;;1.13;0.60;;;14.00;42.70;;;;;;4987150;28;20962;-50
2022/10/19 12:43:15;;;;;;;4.30;0.77;;;13.90;43.50;;;;;;4991074;28;20504;-50
2022/10/19 12:45:49;;;;;;;3.20;0.80;;;13.80;44.90;;;;;;4986786;28;20510;-50
2022/10/19 12:48:23;;;;;;;4.97;1.07;;;13.70;33.20;;;;;;4991074;28;20504;-50
2022/10/19 12:51:07;;;;;;;1.13;0.93;;;13.60;35.50;;;;;;4991777;28;20464;-50
2022/10/19 12:53:37;;;;;;;2.83;0.70;;;13.50;35.90;;;;;;4991128;28;20456;-50
2022/10/19 12:56:07;;;;;;;4.77;1.20;;;13.40;27.10;;;;;;4991948;28;20511;-50
2022/10/19 12:58:39;;;;;;;1.00;0.87;;;13.60;32.80;;;;;;4994406;28;20520;-50
2022/10/19 13:01:08;;;;;;;4.00;1.50;;;13.90;99.90;;;;;;4982227;28;20988;-51